sensor_id;sensor_type;location;lat;lon;timestamp;pressure;altitude;pressure_sealevel;temperature;humidity
60583;BME280;46415;47.536;19.066;2023-04-01T00:02:17;99035.81;;;9.24;100.00
60583;BME280;46415;47.536;19.066;2023-04-01T00:05:20;99040.97;;;9.24;100.00
60583;BME280;46415;47.536;19.066;2023-04-01T00:08:24;99040.34;;;9.21;100.00
60583;BME280;46415;47.536;19.066;2023-04-01T00:11:27;99033.06;;;9.27;100.00
60583;BME280;46415;47.536;19.066;2023-04-01T00:14:30;99035.53;;;9.43;100.00
60583;BME280;46415;47.536;19.066;2023-04-01T00:17:33;99043.69;;;9.51;100.00
60583;BME280;46415;47.536;19.066;2023-04-01T00:20:36;99053.59;;;9.45;100.00
60583;BME280;46415;47.536;19.066;2023-04-01T00:23:39;99039.34;;;9.52;100.00
60583;BME280;46415;47.536;19.066;2023-04-01T00:26:42;99034.53;;;9.46;100.00
60583;BME280;46415;47.536;19.066;2023-04-01T00:29:47;99027.97;;;9.40;100.00
60583;BME280;46415;47.536;19.066;2023-04-01T00:32:53;99039.97;;;9.27;100.00
60583;BME280;46415;47.536;19.066;2023-04-01T00:36:15;99043.84;;;9.20;100.00
60583;BME280;46415;47.536;19.066;2023-04-01T00:39:20;99042.50;;;9.28;100.00
60583;BME280;46415;47.536;19.066;2023-04-01T00:42:23;99042.19;;;9.19;100.00
60583;BME280;46415;47.536;19.066;2023-04-01T00:45:37;99029.88;;;9.08;100.00
60583;BME280;46415;47.536;19.066;2023-04-01T00:48:46;99031.91;;;9.03;100.00
60583;BME280;46415;47.536;19.066;2023-04-01T00:51:54;99030.25;;;9.02;100.00
60583;BME280;46415;47.536;19.066;2023-04-01T00:54:59;99021.38;;;9.06;100.00
60583;BME280;46415;47.536;19.066;2023-04-01T00:58:05;99023.31;;;9.02;100.00
60583;BME280;46415;47.536;19.066;2023-04-01T01:01:10;99022.69;;;9.13;100.00
60583;BME280;46415;47.536;19.066;2023-04-01T01:04:30;99015.69;;;9.29;100.00
60583;BME280;46415;47.536;19.066;2023-04-01T01:10:55;99019.84;;;9.46;100.00
60583;BME280;46415;47.536;19.066;2023-04-01T01:14:08;99019.63;;;9.63;100.00
60583;BME280;46415;47.536;19.066;2023-04-01T01:17:25;99013.62;;;9.63;100.00
60583;BME280;46415;47.536;19.066;2023-04-01T01:20:59;99009.56;;;9.59;100.00
60583;BME280;46415;47.536;19.066;2023-04-01T01:27:31;99013.50;;;9.78;100.00
60583;BME280;46415;47.536;19.066;2023-04-01T01:30:57;99011.75;;;9.79;100.00
60583;BME280;46415;47.536;19.066;2023-04-01T01:35:16;99010.28;;;9.75;100.00
60583;BME280;46415;47.536;19.066;2023-04-01T01:38:09;99003.63;;;9.71;100.00
60583;BME280;46415;47.536;19.066;2023-04-01T01:41:16;99007.53;;;9.64;100.00
60583;BME280;46415;47.536;19.066;2023-04-01T01:44:21;99005.47;;;9.55;100.00
60583;BME280;46415;47.536;19.066;2023-04-01T01:47:27;99007.97;;;9.42;100.00
60583;BME280;46415;47.536;19.066;2023-04-01T01:50:32;99008.47;;;9.34;100.00
60583;BME280;46415;47.536;19.066;2023-04-01T01:53:35;98998.47;;;9.28;100.00
60583;BME280;46415;47.536;19.066;2023-04-01T01:56:39;98999.47;;;9.26;100.00
60583;BME280;46415;47.536;19.066;2023-04-01T01:59:45;98999.94;;;9.18;100.00
60583;BME280;46415;47.536;19.066;2023-04-01T02:02:52;99000.41;;;9.11;100.00
60583;BME280;46415;47.536;19.066;2023-04-01T02:05:59;99011.69;;;9.10;100.00
60583;BME280;46415;47.536;19.066;2023-04-01T02:09:07;98997.28;;;9.06;100.00
60583;BME280;46415;47.536;19.066;2023-04-01T02:12:15;99004.47;;;9.15;100.00
60583;BME280;46415;47.536;19.066;2023-04-01T02:15:21;98993.81;;;9.48;100.00
60583;BME280;46415;47.536;19.066;2023-04-01T02:18:24;98993.81;;;9.76;100.00
60583;BME280;46415;47.536;19.066;2023-04-01T02:21:30;98987.28;;;9.97;100.00
60583;BME280;46415;47.536;19.066;2023-04-01T02:24:35;98985.75;;;10.07;100.00
60583;BME280;46415;47.536;19.066;2023-04-01T02:27:42;98987.84;;;10.15;100.00
60583;BME280;46415;47.536;19.066;2023-04-01T02:30:46;98986.09;;;10.15;100.00
60583;BME280;46415;47.536;19.066;2023-04-01T02:33:51;98988.63;;;10.17;100.00
60583;BME280;46415;47.536;19.066;2023-04-01T02:36:56;98982.88;;;10.12;100.00
60583;BME280;46415;47.536;19.066;2023-04-01T02:40:01;98974.75;;;10.04;100.00
60583;BME280;46415;47.536;19.066;2023-04-01T02:43:05;98981.16;;;9.98;100.00
60583;BME280;46415;47.536;19.066;2023-04-01T02:46:08;98979.59;;;9.96;100.00
60583;BME280;46415;47.536;19.066;2023-04-01T02:49:11;98973.91;;;9.76;100.00
60583;BME280;46415;47.536;19.066;2023-04-01T02:52:14;98981.63;;;9.64;100.00
60583;BME280;46415;47.536;19.066;2023-04-01T02:55:17;98981.63;;;9.64;100.00
60583;BME280;46415;47.536;19.066;2023-04-01T02:58:20;98985.41;;;9.58;100.00
60583;BME280;46415;47.536;19.066;2023-04-01T03:01:23;98986.13;;;9.60;100.00
60583;BME280;46415;47.536;19.066;2023-04-01T03:04:26;98989.56;;;9.61;100.00
60583;BME280;46415;47.536;19.066;2023-04-01T03:07:28;98989.78;;;9.43;100.00
60583;BME280;46415;47.536;19.066;2023-04-01T03:10:31;98990.78;;;9.27;100.00
60583;BME280;46415;47.536;19.066;2023-04-01T03:13:35;98988.75;;;9.18;100.00
60583;BME280;46415;47.536;19.066;2023-04-01T03:16:38;98988.75;;;9.18;100.00
60583;BME280;46415;47.536;19.066;2023-04-01T03:19:41;98980.53;;;9.11;100.00
60583;BME280;46415;47.536;19.066;2023-04-01T03:22:44;98974.06;;;9.04;100.00
60583;BME280;46415;47.536;19.066;2023-04-01T03:25:48;98964.44;;;9.06;100.00
60583;BME280;46415;47.536;19.066;2023-04-01T03:28:51;98971.47;;;9.04;100.00
60583;BME280;46415;47.536;19.066;2023-04-01T03:31:54;98984.03;;;8.96;100.00
60583;BME280;46415;47.536;19.066;2023-04-01T03:34:57;98993.94;;;9.04;100.00
60583;BME280;46415;47.536;19.066;2023-04-01T03:38:00;98991.44;;;9.16;100.00
60583;BME280;46415;47.536;19.066;2023-04-01T03:41:03;98987.75;;;9.20;100.00
60583;BME280;46415;47.536;19.066;2023-04-01T03:44:06;98993.56;;;9.24;100.00
60583;BME280;46415;47.536;19.066;2023-04-01T03:47:09;99001.34;;;9.38;100.00
60583;BME280;46415;47.536;19.066;2023-04-01T03:50:12;99001.34;;;9.38;100.00
60583;BME280;46415;47.536;19.066;2023-04-01T03:53:15;99010.69;;;9.40;100.00
60583;BME280;46415;47.536;19.066;2023-04-01T03:56:18;99014.81;;;9.43;100.00
60583;BME280;46415;47.536;19.066;2023-04-01T03:59:21;99011.97;;;9.33;100.00
60583;BME280;46415;47.536;19.066;2023-04-01T04:02:24;99013.53;;;9.22;100.00
60583;BME280;46415;47.536;19.066;2023-04-01T04:05:27;99017.13;;;9.19;100.00
60583;BME280;46415;47.536;19.066;2023-04-01T04:08:30;99020.84;;;9.15;100.00
60583;BME280;46415;47.536;19.066;2023-04-01T04:11:33;99017.97;;;9.20;100.00
60583;BME280;46415;47.536;19.066;2023-04-01T04:14:37;99013.53;;;9.08;100.00
60583;BME280;46415;47.536;19.066;2023-04-01T04:17:40;99011.66;;;8.95;100.00
60583;BME280;46415;47.536;19.066;2023-04-01T04:20:46;99018.56;;;8.95;100.00
60583;BME280;46415;47.536;19.066;2023-04-01T04:23:52;99015.91;;;8.96;100.00
60583;BME280;46415;47.536;19.066;2023-04-01T04:26:55;99013.59;;;8.92;100.00
60583;BME280;46415;47.536;19.066;2023-04-01T04:29:58;99021.34;;;8.92;100.00
60583;BME280;46415;47.536;19.066;2023-04-01T04:33:01;99022.28;;;8.91;100.00
60583;BME280;46415;47.536;19.066;2023-04-01T04:36:04;99017.09;;;8.91;100.00
60583;BME280;46415;47.536;19.066;2023-04-01T04:39:07;99015.00;;;8.97;100.00
60583;BME280;46415;47.536;19.066;2023-04-01T04:42:12;99017.37;;;9.00;100.00
60583;BME280;46415;47.536;19.066;2023-04-01T04:45:15;99003.53;;;9.01;100.00
60583;BME280;46415;47.536;19.066;2023-04-01T04:48:18;99004.09;;;9.07;100.00
60583;BME280;46415;47.536;19.066;2023-04-01T04:51:23;99014.75;;;9.16;100.00
60583;BME280;46415;47.536;19.066;2023-04-01T04:54:26;99005.59;;;9.11;100.00
60583;BME280;46415;47.536;19.066;2023-04-01T04:57:29;99007.34;;;9.10;100.00
60583;BME280;46415;47.536;19.066;2023-04-01T05:00:33;99010.94;;;9.08;100.00
60583;BME280;46415;47.536;19.066;2023-04-01T05:03:35;99006.56;;;8.94;100.00
60583;BME280;46415;47.536;19.066;2023-04-01T05:06:39;99009.75;;;8.99;100.00
60583;BME280;46415;47.536;19.066;2023-04-01T05:09:42;99011.56;;;8.97;100.00
60583;BME280;46415;47.536;19.066;2023-04-01T05:12:45;99009.53;;;9.02;100.00
60583;BME280;46415;47.536;19.066;2023-04-01T05:15:49;99011.50;;;9.13;100.00
60583;BME280;46415;47.536;19.066;2023-04-01T05:18:52;99012.78;;;9.20;100.00
60583;BME280;46415;47.536;19.066;2023-04-01T05:21:54;99014.66;;;9.32;100.00
60583;BME280;46415;47.536;19.066;2023-04-01T05:24:57;99007.59;;;9.62;100.00
60583;BME280;46415;47.536;19.066;2023-04-01T05:28:00;99007.69;;;9.75;100.00
60583;BME280;46415;47.536;19.066;2023-04-01T05:31:05;99010.34;;;9.88;100.00
60583;BME280;46415;47.536;19.066;2023-04-01T05:34:08;99023.47;;;9.99;100.00
60583;BME280;46415;47.536;19.066;2023-04-01T05:37:12;99018.34;;;10.11;100.00
60583;BME280;46415;47.536;19.066;2023-04-01T05:40:14;99016.84;;;10.21;100.00
60583;BME280;46415;47.536;19.066;2023-04-01T05:43:17;99021.78;;;10.39;100.00
60583;BME280;46415;47.536;19.066;2023-04-01T05:46:21;99018.41;;;10.51;100.00
60583;BME280;46415;47.536;19.066;2023-04-01T05:49:25;99018.94;;;10.56;99.51
60583;BME280;46415;47.536;19.066;2023-04-01T05:52:30;99021.66;;;10.67;99.02
60583;BME280;46415;47.536;19.066;2023-04-01T05:55:35;99023.28;;;10.95;99.86
60583;BME280;46415;47.536;19.066;2023-04-01T05:58:39;99024.09;;;10.95;95.98
60583;BME280;46415;47.536;19.066;2023-04-01T06:01:43;99017.34;;;11.05;96.35
60583;BME280;46415;47.536;19.066;2023-04-01T06:04:46;99019.44;;;11.13;94.31
60583;BME280;46415;47.536;19.066;2023-04-01T06:07:55;99024.44;;;11.29;94.25
60583;BME280;46415;47.536;19.066;2023-04-01T06:21:56;99025.87;;;11.45;90.57
60583;BME280;46415;47.536;19.066;2023-04-01T06:29:00;99021.59;;;11.44;89.36
60583;BME280;46415;47.536;19.066;2023-04-01T06:53:21;99039.38;;;11.51;90.69
60583;BME280;46415;47.536;19.066;2023-04-01T06:56:29;99044.47;;;11.52;92.72
60583;BME280;46415;47.536;19.066;2023-04-01T06:59:34;99037.50;;;11.65;89.95
60583;BME280;46415;47.536;19.066;2023-04-01T07:02:53;99039.03;;;11.80;89.31
60583;BME280;46415;47.536;19.066;2023-04-01T07:06:03;99040.50;;;11.84;89.04
60583;BME280;46415;47.536;19.066;2023-04-01T07:09:13;99043.81;;;11.86;87.96
60583;BME280;46415;47.536;19.066;2023-04-01T07:12:36;99049.44;;;12.17;88.32
60583;BME280;46415;47.536;19.066;2023-04-01T07:15:51;99043.41;;;12.16;86.02
60583;BME280;46415;47.536;19.066;2023-04-01T07:22:35;99045.28;;;12.51;84.69
60583;BME280;46415;47.536;19.066;2023-04-01T07:25:44;99038.56;;;12.94;82.29
60583;BME280;46415;47.536;19.066;2023-04-01T07:28:51;99038.44;;;12.96;82.31
60583;BME280;46415;47.536;19.066;2023-04-01T07:35:34;99046.34;;;13.18;80.96
60583;BME280;46415;47.536;19.066;2023-04-01T07:42:33;99045.41;;;13.53;77.72
60583;BME280;46415;47.536;19.066;2023-04-01T07:45:45;99047.81;;;13.44;76.48
60583;BME280;46415;47.536;19.066;2023-04-01T07:49:01;99042.34;;;13.59;78.34
60583;BME280;46415;47.536;19.066;2023-04-01T07:59:24;99057.94;;;13.14;78.73
60583;BME280;46415;47.536;19.066;2023-04-01T08:02:38;99059.72;;;13.25;78.29
60583;BME280;46415;47.536;19.066;2023-04-01T08:05:55;99058.69;;;13.49;76.74
60583;BME280;46415;47.536;19.066;2023-04-01T08:22:46;99055.41;;;13.81;74.88
60583;BME280;46415;47.536;19.066;2023-04-01T08:32:16;99058.72;;;14.48;72.18
60583;BME280;46415;47.536;19.066;2023-04-01T08:38:44;99059.16;;;14.64;69.48
60583;BME280;46415;47.536;19.066;2023-04-01T08:42:09;99051.69;;;14.60;71.92
60583;BME280;46415;47.536;19.066;2023-04-01T08:45:48;99054.66;;;14.01;73.64
60583;BME280;46415;47.536;19.066;2023-04-01T08:52:18;99050.09;;;14.48;71.97
60583;BME280;46415;47.536;19.066;2023-04-01T08:59:10;99063.13;;;14.37;72.96
60583;BME280;46415;47.536;19.066;2023-04-01T09:12:19;99055.94;;;14.93;67.45
60583;BME280;46415;47.536;19.066;2023-04-01T09:15:47;99059.94;;;14.97;68.59
60583;BME280;46415;47.536;19.066;2023-04-01T09:19:23;99069.19;;;14.80;68.51
60583;BME280;46415;47.536;19.066;2023-04-01T09:37:18;99040.00;;;14.96;70.62
60583;BME280;46415;47.536;19.066;2023-04-01T09:44:03;99058.47;;;13.97;72.90
60583;BME280;46415;47.536;19.066;2023-04-01T10:00:52;99055.59;;;13.89;76.01
60583;BME280;46415;47.536;19.066;2023-04-01T10:21:16;99070.59;;;14.52;71.88
60583;BME280;46415;47.536;19.066;2023-04-01T11:13:14;99048.59;;;15.79;67.47
60583;BME280;46415;47.536;19.066;2023-04-01T11:25:59;99039.72;;;16.80;58.74
60583;BME280;46415;47.536;19.066;2023-04-01T11:36:14;99049.63;;;14.75;63.43
60583;BME280;46415;47.536;19.066;2023-04-01T11:40:26;99065.78;;;14.14;67.76
60583;BME280;46415;47.536;19.066;2023-04-01T12:11:18;99048.56;;;14.98;64.47
60583;BME280;46415;47.536;19.066;2023-04-01T12:18:11;99059.53;;;15.13;62.44
60583;BME280;46415;47.536;19.066;2023-04-01T12:21:36;99057.75;;;15.43;60.64
60583;BME280;46415;47.536;19.066;2023-04-01T12:42:31;99054.88;;;14.95;65.69
60583;BME280;46415;47.536;19.066;2023-04-01T12:48:59;99053.53;;;15.22;63.77
60583;BME280;46415;47.536;19.066;2023-04-01T12:52:13;99053.84;;;15.28;65.09
60583;BME280;46415;47.536;19.066;2023-04-01T12:55:39;99053.59;;;15.82;64.83
60583;BME280;46415;47.536;19.066;2023-04-01T12:58:51;99054.91;;;16.07;59.73
60583;BME280;46415;47.536;19.066;2023-04-01T13:02:10;99060.88;;;16.28;59.67
60583;BME280;46415;47.536;19.066;2023-04-01T13:24:48;99044.12;;;16.79;54.38
60583;BME280;46415;47.536;19.066;2023-04-01T13:28:50;99046.19;;;16.85;55.30
60583;BME280;46415;47.536;19.066;2023-04-01T13:35:18;99044.12;;;16.60;55.56
60583;BME280;46415;47.536;19.066;2023-04-01T13:38:52;99031.69;;;16.52;54.24
60583;BME280;46415;47.536;19.066;2023-04-01T13:45:22;99046.91;;;16.68;51.78
60583;BME280;46415;47.536;19.066;2023-04-01T13:49:19;99052.94;;;16.88;54.27
60583;BME280;46415;47.536;19.066;2023-04-01T13:52:27;99054.88;;;16.66;52.86
60583;BME280;46415;47.536;19.066;2023-04-01T13:55:35;99056.50;;;17.25;52.53
60583;BME280;46415;47.536;19.066;2023-04-01T13:58:46;99053.66;;;16.80;53.69
60583;BME280;46415;47.536;19.066;2023-04-01T14:05:35;99054.59;;;16.89;54.30
60583;BME280;46415;47.536;19.066;2023-04-01T14:12:09;99061.91;;;16.66;54.40
60583;BME280;46415;47.536;19.066;2023-04-01T14:18:37;99046.91;;;15.18;60.45
60583;BME280;46415;47.536;19.066;2023-04-01T14:25:03;99050.72;;;16.54;56.27
60583;BME280;46415;47.536;19.066;2023-04-01T14:35:29;99052.78;;;18.02;49.85
60583;BME280;46415;47.536;19.066;2023-04-01T14:42:41;99039.66;;;18.47;47.78
60583;BME280;46415;47.536;19.066;2023-04-01T14:52:38;99043.72;;;22.00;40.06
60583;BME280;46415;47.536;19.066;2023-04-01T14:58:57;99040.94;;;22.55;37.90
60583;BME280;46415;47.536;19.066;2023-04-01T15:02:18;99043.50;;;22.40;37.36
60583;BME280;46415;47.536;19.066;2023-04-01T15:09:02;99057.41;;;23.92;34.64
60583;BME280;46415;47.536;19.066;2023-04-01T15:15:31;99055.13;;;24.76;33.98
60583;BME280;46415;47.536;19.066;2023-04-01T15:22:23;99060.47;;;23.23;35.59
60583;BME280;46415;47.536;19.066;2023-04-01T15:25:50;99050.66;;;22.01;36.55
60583;BME280;46415;47.536;19.066;2023-04-01T15:29:15;99060.19;;;20.58;39.90
60583;BME280;46415;47.536;19.066;2023-04-01T15:39:24;99051.81;;;19.44;43.22
60583;BME280;46415;47.536;19.066;2023-04-01T15:42:45;99049.75;;;18.69;43.33
60583;BME280;46415;47.536;19.066;2023-04-01T15:46:29;99049.56;;;18.08;45.16
60583;BME280;46415;47.536;19.066;2023-04-01T15:49:43;99055.59;;;17.53;45.74
60583;BME280;46415;47.536;19.066;2023-04-01T16:03:24;99074.44;;;23.83;32.31
60583;BME280;46415;47.536;19.066;2023-04-01T16:10:21;99083.25;;;22.86;33.20
60583;BME280;46415;47.536;19.066;2023-04-01T16:20:17;99091.84;;;22.26;32.60
60583;BME280;46415;47.536;19.066;2023-04-01T16:23:40;99093.59;;;23.56;31.38
60583;BME280;46415;47.536;19.066;2023-04-01T16:27:08;99087.94;;;24.18;30.23
60583;BME280;46415;47.536;19.066;2023-04-01T16:33:51;99097.00;;;23.42;31.18
60583;BME280;46415;47.536;19.066;2023-04-01T16:37:20;99092.03;;;21.53;33.85
60583;BME280;46415;47.536;19.066;2023-04-01T16:40:37;99093.25;;;19.25;37.68
60583;BME280;46415;47.536;19.066;2023-04-01T16:43:51;99088.72;;;18.28;40.83
60583;BME280;46415;47.536;19.066;2023-04-01T16:47:12;99100.34;;;17.62;42.93
60583;BME280;46415;47.536;19.066;2023-04-01T16:50:28;99102.47;;;16.91;45.54
60583;BME280;46415;47.536;19.066;2023-04-01T16:53:45;99096.56;;;16.39;47.06
60583;BME280;46415;47.536;19.066;2023-04-01T16:56:52;99102.16;;;16.06;49.74
60583;BME280;46415;47.536;19.066;2023-04-01T17:03:32;99103.50;;;15.28;55.57
60583;BME280;46415;47.536;19.066;2023-04-01T17:16:43;99116.44;;;14.01;63.30
60583;BME280;46415;47.536;19.066;2023-04-01T17:23:37;99123.87;;;13.61;65.85
60583;BME280;46415;47.536;19.066;2023-04-01T17:26:46;99128.81;;;13.41;66.89
60583;BME280;46415;47.536;19.066;2023-04-01T17:49:43;99139.72;;;12.27;76.70
60583;BME280;46415;47.536;19.066;2023-04-01T17:56:24;99158.50;;;12.07;75.88
60583;BME280;46415;47.536;19.066;2023-04-01T17:59:37;99149.69;;;11.97;79.89
60583;BME280;46415;47.536;19.066;2023-04-01T18:06:19;99161.53;;;11.89;78.02
60583;BME280;46415;47.536;19.066;2023-04-01T18:15:46;99174.91;;;11.57;77.97
60583;BME280;46415;47.536;19.066;2023-04-01T18:22:22;99182.62;;;11.71;78.59
60583;BME280;46415;47.536;19.066;2023-04-01T18:25:38;99185.28;;;11.57;77.90
60583;BME280;46415;47.536;19.066;2023-04-01T18:28:56;99191.03;;;11.50;77.38
60583;BME280;46415;47.536;19.066;2023-04-01T18:32:17;99196.31;;;11.48;78.70
60583;BME280;46415;47.536;19.066;2023-04-01T18:35:48;99193.37;;;11.40;78.26
60583;BME280;46415;47.536;19.066;2023-04-01T18:39:23;99197.50;;;11.30;79.36
60583;BME280;46415;47.536;19.066;2023-04-01T18:42:55;99207.87;;;11.17;81.29
60583;BME280;46415;47.536;19.066;2023-04-01T18:46:24;99206.00;;;11.19;81.24
60583;BME280;46415;47.536;19.066;2023-04-01T18:53:08;99216.41;;;11.19;82.33
60583;BME280;46415;47.536;19.066;2023-04-01T18:56:34;99212.34;;;11.28;82.27
60583;BME280;46415;47.536;19.066;2023-04-01T19:02:56;99223.44;;;11.17;83.62
60583;BME280;46415;47.536;19.066;2023-04-01T19:06:14;99231.22;;;11.17;82.25
60583;BME280;46415;47.536;19.066;2023-04-01T19:13:10;99225.06;;;11.05;82.66
60583;BME280;46415;47.536;19.066;2023-04-01T19:16:46;99223.87;;;11.24;80.87
60583;BME280;46415;47.536;19.066;2023-04-01T19:20:13;99225.25;;;11.29;80.12
60583;BME280;46415;47.536;19.066;2023-04-01T19:26:46;99217.69;;;11.39;79.42
60583;BME280;46415;47.536;19.066;2023-04-01T19:39:48;99231.63;;;11.11;82.17
60583;BME280;46415;47.536;19.066;2023-04-01T19:43:38;99234.16;;;10.98;83.20
60583;BME280;46415;47.536;19.066;2023-04-01T19:46:46;99239.41;;;10.84;86.51
60583;BME280;46415;47.536;19.066;2023-04-01T19:53:45;99250.75;;;10.55;87.89
60583;BME280;46415;47.536;19.066;2023-04-01T19:57:05;99249.28;;;10.51;88.47
60583;BME280;46415;47.536;19.066;2023-04-01T20:03:49;99246.41;;;10.41;89.96
60583;BME280;46415;47.536;19.066;2023-04-01T20:07:12;99257.25;;;10.34;90.52
60583;BME280;46415;47.536;19.066;2023-04-01T20:14:12;99256.50;;;10.17;92.65
60583;BME280;46415;47.536;19.066;2023-04-01T20:20:39;99251.22;;;9.89;94.88
60583;BME280;46415;47.536;19.066;2023-04-01T20:23:50;99252.69;;;9.79;96.74
60583;BME280;46415;47.536;19.066;2023-04-01T20:27:08;99256.06;;;9.81;96.25
60583;BME280;46415;47.536;19.066;2023-04-01T20:37:29;99248.78;;;9.72;97.53
60583;BME280;46415;47.536;19.066;2023-04-01T20:40:46;99242.53;;;9.76;97.65
60583;BME280;46415;47.536;19.066;2023-04-01T20:44:01;99251.50;;;9.70;97.79
60583;BME280;46415;47.536;19.066;2023-04-01T20:51:06;99259.75;;;9.47;100.00
60583;BME280;46415;47.536;19.066;2023-04-01T21:14:59;99280.47;;;9.31;100.00
60583;BME280;46415;47.536;19.066;2023-04-01T21:21:53;99283.56;;;9.38;100.00
60583;BME280;46415;47.536;19.066;2023-04-01T21:28:33;99283.81;;;9.18;100.00
60583;BME280;46415;47.536;19.066;2023-04-01T21:45:04;99296.78;;;8.86;100.00
60583;BME280;46415;47.536;19.066;2023-04-01T21:51:52;99301.78;;;9.66;100.00
60583;BME280;46415;47.536;19.066;2023-04-01T22:05:42;99300.37;;;10.20;92.35
60583;BME280;46415;47.536;19.066;2023-04-01T22:15:54;99311.28;;;10.11;91.93
60583;BME280;46415;47.536;19.066;2023-04-01T22:19:15;99315.44;;;10.00;92.69
60583;BME280;46415;47.536;19.066;2023-04-01T22:25:43;99306.25;;;9.94;93.12
60583;BME280;46415;47.536;19.066;2023-04-01T22:43:27;99320.75;;;9.82;94.39
60583;BME280;46415;47.536;19.066;2023-04-01T22:46:20;99334.97;;;9.75;94.88
60583;BME280;46415;47.536;19.066;2023-04-01T22:49:46;99339.44;;;9.58;96.95
60583;BME280;46415;47.536;19.066;2023-04-01T22:56:16;99345.44;;;9.42;98.37
60583;BME280;46415;47.536;19.066;2023-04-01T22:59:47;99345.28;;;9.30;99.54
60583;BME280;46415;47.536;19.066;2023-04-01T23:03:11;99351.47;;;9.27;99.78
60583;BME280;46415;47.536;19.066;2023-04-01T23:06:24;99353.25;;;9.11;100.00
60583;BME280;46415;47.536;19.066;2023-04-01T23:09:31;99348.88;;;8.96;100.00
60583;BME280;46415;47.536;19.066;2023-04-01T23:12:35;99352.81;;;9.03;100.00
60583;BME280;46415;47.536;19.066;2023-04-01T23:15:39;99355.72;;;8.97;100.00
60583;BME280;46415;47.536;19.066;2023-04-01T23:18:52;99361.03;;;8.94;100.00
60583;BME280;46415;47.536;19.066;2023-04-01T23:22:07;99360.13;;;8.95;100.00
60583;BME280;46415;47.536;19.066;2023-04-01T23:28:39;99365.81;;;9.01;100.00
60583;BME280;46415;47.536;19.066;2023-04-01T23:32:03;99374.88;;;9.10;100.00
60583;BME280;46415;47.536;19.066;2023-04-01T23:35:15;99376.69;;;9.08;100.00
60583;BME280;46415;47.536;19.066;2023-04-01T23:38:21;99369.09;;;9.05;100.00
60583;BME280;46415;47.536;19.066;2023-04-01T23:41:27;99362.31;;;9.02;100.00
60583;BME280;46415;47.536;19.066;2023-04-01T23:44:33;99364.50;;;9.10;100.00
60583;BME280;46415;47.536;19.066;2023-04-01T23:47:38;99359.91;;;8.99;100.00
60583;BME280;46415;47.536;19.066;2023-04-01T23:50:44;99364.47;;;8.94;100.00
60583;BME280;46415;47.536;19.066;2023-04-01T23:53:56;99370.94;;;9.03;100.00
60583;BME280;46415;47.536;19.066;2023-04-01T23:57:04;99373.97;;;8.94;100.00
